sensor_id;sensor_type;location;lat;lon;timestamp;P1;durP1;ratioP1;P2;durP2;ratioP2
15504;SDS011;7854;52.184;5.942;2022-09-09T00:02:38;7;;;6;;
15504;SDS011;7854;52.184;5.942;2022-09-09T00:03:02;6;;;5;;
15504;SDS011;7854;52.184;5.942;2022-09-09T00:05:17;3;;;3;;
15504;SDS011;7854;52.184;5.942;2022-09-09T00:07:34;5;;;3;;
15504;SDS011;7854;52.184;5.942;2022-09-09T00:09:45;3;;;2;;
15504;SDS011;7854;52.184;5.942;2022-09-09T00:11:59;3;;;3;;
15504;SDS011;7854;52.184;5.942;2022-09-09T00:14:14;3;;;3;;
15504;SDS011;7854;52.184;5.942;2022-09-09T00:16:27;3;;;3;;
15504;SDS011;7854;52.184;5.942;2022-09-09T00:18:46;2;;;2;;
15504;SDS011;7854;52.184;5.942;2022-09-09T00:20:58;3;;;2;;
15504;SDS011;7854;52.184;5.942;2022-09-09T00:23:12;6;;;3;;
15504;SDS011;7854;52.184;5.942;2022-09-09T00:25:27;5;;;4;;
15504;SDS011;7854;52.184;5.942;2022-09-09T00:27:40;5;;;5;;
15504;SDS011;7854;52.184;5.942;2022-09-09T00:29:54;12;;;5;;
15504;SDS011;7854;52.184;5.942;2022-09-09T00:32:11;5;;;5;;
15504;SDS011;7854;52.184;5.942;2022-09-09T00:34:23;4;;;4;;
15504;SDS011;7854;52.184;5.942;2022-09-09T00:36:37;4;;;3;;
15504;SDS011;7854;52.184;5.942;2022-09-09T00:38:52;4;;;3;;
15504;SDS011;7854;52.184;5.942;2022-09-09T00:41:07;5;;;4;;
15504;SDS011;7854;52.184;5.942;2022-09-09T00:43:24;5;;;5;;
15504;SDS011;7854;52.184;5.942;2022-09-09T00:45:41;5;;;5;;
15504;SDS011;7854;52.184;5.942;2022-09-09T00:47:49;5;;;5;;
15504;SDS011;7854;52.184;5.942;2022-09-09T00:50:08;9;;;8;;
15504;SDS011;7854;52.184;5.942;2022-09-09T00:52:22;7;;;7;;
15504;SDS011;7854;52.184;5.942;2022-09-09T00:54:35;10;;;9;;
15504;SDS011;7854;52.184;5.942;2022-09-09T00:56:49;5;;;5;;
15504;SDS011;7854;52.184;5.942;2022-09-09T00:59:04;5;;;5;;
15504;SDS011;7854;52.184;5.942;2022-09-09T01:01:16;7;;;7;;
15504;SDS011;7854;52.184;5.942;2022-09-09T01:03:33;8;;;7;;
15504;SDS011;7854;52.184;5.942;2022-09-09T01:05:45;6;;;6;;
15504;SDS011;7854;52.184;5.942;2022-09-09T01:08:00;7;;;6;;
15504;SDS011;7854;52.184;5.942;2022-09-09T01:10:17;8;;;7;;
15504;SDS011;7854;52.184;5.942;2022-09-09T01:12:30;6;;;5;;
15504;SDS011;7854;52.184;5.942;2022-09-09T01:14:44;17;;;6;;
15504;SDS011;7854;52.184;5.942;2022-09-09T01:16:58;5;;;5;;
15504;SDS011;7854;52.184;5.942;2022-09-09T01:19:13;8;;;8;;
15504;SDS011;7854;52.184;5.942;2022-09-09T01:21:30;6;;;5;;
15504;SDS011;7854;52.184;5.942;2022-09-09T01:23:43;8;;;7;;
15504;SDS011;7854;52.184;5.942;2022-09-09T01:26:13;6;;;5;;
15504;SDS011;7854;52.184;5.942;2022-09-09T01:28:09;7;;;6;;
15504;SDS011;7854;52.184;5.942;2022-09-09T01:30:24;5;;;5;;
15504;SDS011;7854;52.184;5.942;2022-09-09T01:32:39;6;;;6;;
15504;SDS011;7854;52.184;5.942;2022-09-09T01:34:52;6;;;5;;
15504;SDS011;7854;52.184;5.942;2022-09-09T01:37:07;6;;;6;;
15504;SDS011;7854;52.184;5.942;2022-09-09T01:39:21;8;;;7;;
15504;SDS011;7854;52.184;5.942;2022-09-09T01:41:36;10;;;9;;
15504;SDS011;7854;52.184;5.942;2022-09-09T01:43:50;7;;;6;;
15504;SDS011;7854;52.184;5.942;2022-09-09T01:46:05;6;;;5;;
15504;SDS011;7854;52.184;5.942;2022-09-09T01:48:19;6;;;5;;
15504;SDS011;7854;52.184;5.942;2022-09-09T01:50:33;9;;;8;;
15504;SDS011;7854;52.184;5.942;2022-09-09T01:52:49;5;;;5;;
15504;SDS011;7854;52.184;5.942;2022-09-09T01:55:02;11;;;10;;
15504;SDS011;7854;52.184;5.942;2022-09-09T01:57:18;8;;;5;;
15504;SDS011;7854;52.184;5.942;2022-09-09T01:59:36;5;;;5;;
15504;SDS011;7854;52.184;5.942;2022-09-09T02:01:48;6;;;6;;
15504;SDS011;7854;52.184;5.942;2022-09-09T02:03:59;7;;;6;;
15504;SDS011;7854;52.184;5.942;2022-09-09T02:06:14;6;;;5;;
15504;SDS011;7854;52.184;5.942;2022-09-09T02:08:29;9;;;8;;
15504;SDS011;7854;52.184;5.942;2022-09-09T02:10:45;5;;;5;;
15504;SDS011;7854;52.184;5.942;2022-09-09T02:12:59;5;;;4;;
15504;SDS011;7854;52.184;5.942;2022-09-09T02:15:14;7;;;6;;
15504;SDS011;7854;52.184;5.942;2022-09-09T02:17:27;5;;;5;;
15504;SDS011;7854;52.184;5.942;2022-09-09T02:19:42;6;;;6;;
15504;SDS011;7854;52.184;5.942;2022-09-09T02:21:55;5;;;4;;
15504;SDS011;7854;52.184;5.942;2022-09-09T02:24:09;7;;;5;;
15504;SDS011;7854;52.184;5.942;2022-09-09T02:26:24;5;;;4;;
15504;SDS011;7854;52.184;5.942;2022-09-09T02:28:38;6;;;5;;
15504;SDS011;7854;52.184;5.942;2022-09-09T02:30:53;6;;;6;;
15504;SDS011;7854;52.184;5.942;2022-09-09T02:33:07;6;;;5;;
15504;SDS011;7854;52.184;5.942;2022-09-09T02:35:22;4;;;4;;
15504;SDS011;7854;52.184;5.942;2022-09-09T02:37:37;5;;;5;;
15504;SDS011;7854;52.184;5.942;2022-09-09T02:39:50;7;;;7;;
15504;SDS011;7854;52.184;5.942;2022-09-09T02:42:05;5;;;4;;
15504;SDS011;7854;52.184;5.942;2022-09-09T02:44:19;9;;;8;;
15504;SDS011;7854;52.184;5.942;2022-09-09T02:46:36;5;;;5;;
15504;SDS011;7854;52.184;5.942;2022-09-09T02:48:51;5;;;5;;
15504;SDS011;7854;52.184;5.942;2022-09-09T02:51:04;9;;;6;;
15504;SDS011;7854;52.184;5.942;2022-09-09T02:53:18;6;;;5;;
15504;SDS011;7854;52.184;5.942;2022-09-09T02:55:35;6;;;6;;
15504;SDS011;7854;52.184;5.942;2022-09-09T02:57:46;4;;;4;;
15504;SDS011;7854;52.184;5.942;2022-09-09T03:00:00;4;;;4;;
15504;SDS011;7854;52.184;5.942;2022-09-09T03:02:15;7;;;6;;
15504;SDS011;7854;52.184;5.942;2022-09-09T03:04:29;7;;;6;;
15504;SDS011;7854;52.184;5.942;2022-09-09T03:06:43;5;;;4;;
15504;SDS011;7854;52.184;5.942;2022-09-09T03:08:58;6;;;5;;
15504;SDS011;7854;52.184;5.942;2022-09-09T03:11:13;7;;;6;;
15504;SDS011;7854;52.184;5.942;2022-09-09T03:13:27;6;;;5;;
15504;SDS011;7854;52.184;5.942;2022-09-09T03:15:42;6;;;5;;
15504;SDS011;7854;52.184;5.942;2022-09-09T03:17:56;6;;;5;;
15504;SDS011;7854;52.184;5.942;2022-09-09T03:20:10;6;;;6;;
15504;SDS011;7854;52.184;5.942;2022-09-09T03:22:25;12;;;8;;
15504;SDS011;7854;52.184;5.942;2022-09-09T03:24:39;18;;;5;;
15504;SDS011;7854;52.184;5.942;2022-09-09T03:26:54;11;;;6;;
15504;SDS011;7854;52.184;5.942;2022-09-09T03:29:08;5;;;5;;
15504;SDS011;7854;52.184;5.942;2022-09-09T03:31:22;8;;;7;;
15504;SDS011;7854;52.184;5.942;2022-09-09T03:33:37;6;;;6;;
15504;SDS011;7854;52.184;5.942;2022-09-09T03:35:51;6;;;6;;
15504;SDS011;7854;52.184;5.942;2022-09-09T03:38:06;19;;;9;;
15504;SDS011;7854;52.184;5.942;2022-09-09T03:40:20;5;;;5;;
15504;SDS011;7854;52.184;5.942;2022-09-09T03:42:35;7;;;6;;
15504;SDS011;7854;52.184;5.942;2022-09-09T03:44:49;6;;;5;;
15504;SDS011;7854;52.184;5.942;2022-09-09T03:47:03;5;;;5;;
15504;SDS011;7854;52.184;5.942;2022-09-09T03:49:18;6;;;5;;
15504;SDS011;7854;52.184;5.942;2022-09-09T03:51:32;7;;;6;;
15504;SDS011;7854;52.184;5.942;2022-09-09T03:53:47;14;;;8;;
15504;SDS011;7854;52.184;5.942;2022-09-09T03:56:04;7;;;6;;
15504;SDS011;7854;52.184;5.942;2022-09-09T03:58:16;7;;;5;;
15504;SDS011;7854;52.184;5.942;2022-09-09T04:00:30;11;;;6;;
15504;SDS011;7854;52.184;5.942;2022-09-09T04:02:45;8;;;7;;
15504;SDS011;7854;52.184;5.942;2022-09-09T04:04:59;7;;;7;;
15504;SDS011;7854;52.184;5.942;2022-09-09T04:07:13;8;;;7;;
15504;SDS011;7854;52.184;5.942;2022-09-09T04:09:28;11;;;6;;
15504;SDS011;7854;52.184;5.942;2022-09-09T04:11:43;7;;;7;;
15504;SDS011;7854;52.184;5.942;2022-09-09T04:13:57;9;;;8;;
15504;SDS011;7854;52.184;5.942;2022-09-09T04:16:11;29;;;12;;
15504;SDS011;7854;52.184;5.942;2022-09-09T04:18:25;10;;;8;;
15504;SDS011;7854;52.184;5.942;2022-09-09T04:20:39;18;;;11;;
15504;SDS011;7854;52.184;5.942;2022-09-09T04:22:54;8;;;7;;
15504;SDS011;7854;52.184;5.942;2022-09-09T04:25:08;9;;;7;;
15504;SDS011;7854;52.184;5.942;2022-09-09T04:27:23;8;;;7;;
15504;SDS011;7854;52.184;5.942;2022-09-09T04:29:37;8;;;6;;
15504;SDS011;7854;52.184;5.942;2022-09-09T04:31:52;11;;;9;;
15504;SDS011;7854;52.184;5.942;2022-09-09T04:34:06;13;;;9;;
15504;SDS011;7854;52.184;5.942;2022-09-09T04:36:21;6;;;6;;
15504;SDS011;7854;52.184;5.942;2022-09-09T04:38:35;7;;;7;;
15504;SDS011;7854;52.184;5.942;2022-09-09T04:40:50;22;;;9;;
15504;SDS011;7854;52.184;5.942;2022-09-09T04:43:04;17;;;11;;
15504;SDS011;7854;52.184;5.942;2022-09-09T04:45:18;10;;;10;;
15504;SDS011;7854;52.184;5.942;2022-09-09T04:47:33;10;;;9;;
15504;SDS011;7854;52.184;5.942;2022-09-09T04:49:47;9;;;8;;
15504;SDS011;7854;52.184;5.942;2022-09-09T04:52:05;11;;;10;;
15504;SDS011;7854;52.184;5.942;2022-09-09T04:54:16;8;;;7;;
15504;SDS011;7854;52.184;5.942;2022-09-09T04:56:30;10;;;9;;
15504;SDS011;7854;52.184;5.942;2022-09-09T04:58:45;9;;;8;;
15504;SDS011;7854;52.184;5.942;2022-09-09T05:01:07;10;;;8;;
15504;SDS011;7854;52.184;5.942;2022-09-09T05:03:14;15;;;12;;
15504;SDS011;7854;52.184;5.942;2022-09-09T05:05:28;7;;;6;;
15504;SDS011;7854;52.184;5.942;2022-09-09T05:07:42;9;;;8;;
15504;SDS011;7854;52.184;5.942;2022-09-09T05:09:57;12;;;10;;
15504;SDS011;7854;52.184;5.942;2022-09-09T05:12:11;11;;;9;;
15504;SDS011;7854;52.184;5.942;2022-09-09T05:14:26;10;;;9;;
15504;SDS011;7854;52.184;5.942;2022-09-09T05:16:41;9;;;8;;
15504;SDS011;7854;52.184;5.942;2022-09-09T05:18:55;11;;;9;;
15504;SDS011;7854;52.184;5.942;2022-09-09T05:21:10;17;;;11;;
15504;SDS011;7854;52.184;5.942;2022-09-09T05:23:24;10;;;9;;
15504;SDS011;7854;52.184;5.942;2022-09-09T05:25:38;8;;;7;;
15504;SDS011;7854;52.184;5.942;2022-09-09T05:27:53;8;;;7;;
15504;SDS011;7854;52.184;5.942;2022-09-09T05:30:08;10;;;9;;
15504;SDS011;7854;52.184;5.942;2022-09-09T05:32:21;13;;;8;;
15504;SDS011;7854;52.184;5.942;2022-09-09T05:34:36;8;;;7;;
15504;SDS011;7854;52.184;5.942;2022-09-09T05:36:50;7;;;7;;
15504;SDS011;7854;52.184;5.942;2022-09-09T05:39:05;13;;;10;;
15504;SDS011;7854;52.184;5.942;2022-09-09T05:41:19;9;;;8;;
15504;SDS011;7854;52.184;5.942;2022-09-09T05:43:33;10;;;9;;
15504;SDS011;7854;52.184;5.942;2022-09-09T05:45:47;6;;;6;;
15504;SDS011;7854;52.184;5.942;2022-09-09T05:48:03;10;;;8;;
15504;SDS011;7854;52.184;5.942;2022-09-09T05:50:16;8;;;8;;
15504;SDS011;7854;52.184;5.942;2022-09-09T05:52:30;13;;;9;;
15504;SDS011;7854;52.184;5.942;2022-09-09T05:54:45;10;;;9;;
15504;SDS011;7854;52.184;5.942;2022-09-09T05:57:00;16;;;10;;
15504;SDS011;7854;52.184;5.942;2022-09-09T05:59:14;10;;;9;;
15504;SDS011;7854;52.184;5.942;2022-09-09T06:01:29;8;;;7;;
15504;SDS011;7854;52.184;5.942;2022-09-09T06:03:43;15;;;8;;
15504;SDS011;7854;52.184;5.942;2022-09-09T06:05:57;9;;;7;;
15504;SDS011;7854;52.184;5.942;2022-09-09T06:08:11;16;;;8;;
15504;SDS011;7854;52.184;5.942;2022-09-09T06:10:26;12;;;10;;
15504;SDS011;7854;52.184;5.942;2022-09-09T06:12:41;14;;;8;;
15504;SDS011;7854;52.184;5.942;2022-09-09T06:14:55;13;;;10;;
15504;SDS011;7854;52.184;5.942;2022-09-09T06:17:10;6;;;6;;
15504;SDS011;7854;52.184;5.942;2022-09-09T06:19:24;8;;;7;;
15504;SDS011;7854;52.184;5.942;2022-09-09T06:21:39;7;;;7;;
15504;SDS011;7854;52.184;5.942;2022-09-09T06:23:52;7;;;7;;
15504;SDS011;7854;52.184;5.942;2022-09-09T06:26:09;8;;;7;;
15504;SDS011;7854;52.184;5.942;2022-09-09T06:28:21;7;;;6;;
15504;SDS011;7854;52.184;5.942;2022-09-09T06:30:35;6;;;6;;
15504;SDS011;7854;52.184;5.942;2022-09-09T06:32:50;8;;;7;;
15504;SDS011;7854;52.184;5.942;2022-09-09T06:35:05;10;;;7;;
15504;SDS011;7854;52.184;5.942;2022-09-09T06:37:18;6;;;6;;
15504;SDS011;7854;52.184;5.942;2022-09-09T06:39:33;10;;;7;;
15504;SDS011;7854;52.184;5.942;2022-09-09T06:41:48;7;;;5;;
15504;SDS011;7854;52.184;5.942;2022-09-09T06:44:03;12;;;6;;
15504;SDS011;7854;52.184;5.942;2022-09-09T06:46:17;5;;;5;;
15504;SDS011;7854;52.184;5.942;2022-09-09T06:48:31;6;;;5;;
15504;SDS011;7854;52.184;5.942;2022-09-09T06:50:45;9;;;6;;
15504;SDS011;7854;52.184;5.942;2022-09-09T06:53:00;7;;;4;;
15504;SDS011;7854;52.184;5.942;2022-09-09T06:55:14;5;;;4;;
15504;SDS011;7854;52.184;5.942;2022-09-09T06:57:28;4;;;3;;
15504;SDS011;7854;52.184;5.942;2022-09-09T06:59:43;4;;;3;;
15504;SDS011;7854;52.184;5.942;2022-09-09T07:01:58;4;;;3;;
15504;SDS011;7854;52.184;5.942;2022-09-09T07:04:12;5;;;4;;
15504;SDS011;7854;52.184;5.942;2022-09-09T07:06:27;7;;;3;;
15504;SDS011;7854;52.184;5.942;2022-09-09T07:08:41;3;;;3;;
15504;SDS011;7854;52.184;5.942;2022-09-09T07:11:01;4;;;2;;
15504;SDS011;7854;52.184;5.942;2022-09-09T07:13:10;5;;;2;;
15504;SDS011;7854;52.184;5.942;2022-09-09T07:15:24;2;;;2;;
15504;SDS011;7854;52.184;5.942;2022-09-09T07:17:39;1;;;1;;
15504;SDS011;7854;52.184;5.942;2022-09-09T07:19:53;4;;;2;;
15504;SDS011;7854;52.184;5.942;2022-09-09T07:22:08;2;;;2;;
15504;SDS011;7854;52.184;5.942;2022-09-09T07:24:22;12;;;3;;
15504;SDS011;7854;52.184;5.942;2022-09-09T07:26:37;7;;;2;;
15504;SDS011;7854;52.184;5.942;2022-09-09T07:28:51;7;;;3;;
15504;SDS011;7854;52.184;5.942;2022-09-09T07:31:05;8;;;3;;
15504;SDS011;7854;52.184;5.942;2022-09-09T07:33:20;3;;;2;;
15504;SDS011;7854;52.184;5.942;2022-09-09T07:35:34;6;;;2;;
15504;SDS011;7854;52.184;5.942;2022-09-09T07:37:48;5;;;2;;
15504;SDS011;7854;52.184;5.942;2022-09-09T07:40:06;2;;;1;;
15504;SDS011;7854;52.184;5.942;2022-09-09T07:42:17;2;;;1;;
15504;SDS011;7854;52.184;5.942;2022-09-09T07:44:32;2;;;2;;
15504;SDS011;7854;52.184;5.942;2022-09-09T07:46:47;7;;;1;;
15504;SDS011;7854;52.184;5.942;2022-09-09T07:49:01;3;;;1;;
15504;SDS011;7854;52.184;5.942;2022-09-09T07:51:16;2;;;2;;
15504;SDS011;7854;52.184;5.942;2022-09-09T07:53:30;1;;;1;;
15504;SDS011;7854;52.184;5.942;2022-09-09T07:55:44;5;;;1;;
15504;SDS011;7854;52.184;5.942;2022-09-09T07:57:59;3;;;1;;
15504;SDS011;7854;52.184;5.942;2022-09-09T08:00:14;3;;;1;;
15504;SDS011;7854;52.184;5.942;2022-09-09T08:02:28;2;;;1;;
15504;SDS011;7854;52.184;5.942;2022-09-09T08:04:42;2;;;1;;
15504;SDS011;7854;52.184;5.942;2022-09-09T08:06:57;5;;;2;;
15504;SDS011;7854;52.184;5.942;2022-09-09T08:09:11;3;;;1;;
15504;SDS011;7854;52.184;5.942;2022-09-09T08:11:26;4;;;1;;
15504;SDS011;7854;52.184;5.942;2022-09-09T08:13:40;2;;;0;;
15504;SDS011;7854;52.184;5.942;2022-09-09T08:15:54;6;;;1;;
15504;SDS011;7854;52.184;5.942;2022-09-09T08:18:09;2;;;1;;
15504;SDS011;7854;52.184;5.942;2022-09-09T08:20:23;3;;;1;;
15504;SDS011;7854;52.184;5.942;2022-09-09T08:22:38;4;;;1;;
15504;SDS011;7854;52.184;5.942;2022-09-09T08:24:52;5;;;1;;
15504;SDS011;7854;52.184;5.942;2022-09-09T08:27:06;7;;;1;;
15504;SDS011;7854;52.184;5.942;2022-09-09T08:29:21;11;;;1;;
15504;SDS011;7854;52.184;5.942;2022-09-09T08:31:36;3;;;1;;
15504;SDS011;7854;52.184;5.942;2022-09-09T08:33:49;16;;;1;;
15504;SDS011;7854;52.184;5.942;2022-09-09T08:36:05;1;;;0;;
15504;SDS011;7854;52.184;5.942;2022-09-09T08:38:19;7;;;1;;
15504;SDS011;7854;52.184;5.942;2022-09-09T08:40:34;2;;;1;;
15504;SDS011;7854;52.184;5.942;2022-09-09T08:42:48;2;;;1;;
15504;SDS011;7854;52.184;5.942;2022-09-09T08:45:10;2;;;1;;
15504;SDS011;7854;52.184;5.942;2022-09-09T08:47:17;5;;;1;;
15504;SDS011;7854;52.184;5.942;2022-09-09T08:49:37;3;;;1;;
15504;SDS011;7854;52.184;5.942;2022-09-09T08:51:44;2;;;1;;
15504;SDS011;7854;52.184;5.942;2022-09-09T08:53:59;2;;;1;;
15504;SDS011;7854;52.184;5.942;2022-09-09T08:56:14;2;;;1;;
15504;SDS011;7854;52.184;5.942;2022-09-09T08:58:28;6;;;1;;
15504;SDS011;7854;52.184;5.942;2022-09-09T09:00:46;3;;;1;;
15504;SDS011;7854;52.184;5.942;2022-09-09T09:02:59;2;;;1;;
15504;SDS011;7854;52.184;5.942;2022-09-09T09:05:15;2;;;1;;
15504;SDS011;7854;52.184;5.942;2022-09-09T09:07:29;17;;;4;;
15504;SDS011;7854;52.184;5.942;2022-09-09T09:09:42;3;;;2;;
15504;SDS011;7854;52.184;5.942;2022-09-09T09:11:55;2;;;1;;
15504;SDS011;7854;52.184;5.942;2022-09-09T09:14:09;7;;;1;;
15504;SDS011;7854;52.184;5.942;2022-09-09T09:16:26;1;;;1;;
15504;SDS011;7854;52.184;5.942;2022-09-09T09:18:38;1;;;1;;
15504;SDS011;7854;52.184;5.942;2022-09-09T09:20:54;6;;;1;;
15504;SDS011;7854;52.184;5.942;2022-09-09T09:23:09;3;;;2;;
15504;SDS011;7854;52.184;5.942;2022-09-09T09:25:21;6;;;1;;
15504;SDS011;7854;52.184;5.942;2022-09-09T09:27:36;2;;;1;;
15504;SDS011;7854;52.184;5.942;2022-09-09T09:29:50;1;;;1;;
15504;SDS011;7854;52.184;5.942;2022-09-09T09:32:04;4;;;2;;
15504;SDS011;7854;52.184;5.942;2022-09-09T09:34:19;2;;;1;;
15504;SDS011;7854;52.184;5.942;2022-09-09T09:36:34;7;;;1;;
15504;SDS011;7854;52.184;5.942;2022-09-09T09:38:51;9;;;1;;
15504;SDS011;7854;52.184;5.942;2022-09-09T09:41:03;6;;;1;;
15504;SDS011;7854;52.184;5.942;2022-09-09T09:43:18;13;;;4;;
15504;SDS011;7854;52.184;5.942;2022-09-09T09:45:32;2;;;1;;
15504;SDS011;7854;52.184;5.942;2022-09-09T09:47:45;9;;;1;;
15504;SDS011;7854;52.184;5.942;2022-09-09T09:50:00;5;;;1;;
15504;SDS011;7854;52.184;5.942;2022-09-09T09:52:14;4;;;1;;
15504;SDS011;7854;52.184;5.942;2022-09-09T09:54:29;4;;;1;;
15504;SDS011;7854;52.184;5.942;2022-09-09T09:56:43;1;;;1;;
15504;SDS011;7854;52.184;5.942;2022-09-09T09:58:58;5;;;1;;
15504;SDS011;7854;52.184;5.942;2022-09-09T10:01:18;3;;;0;;
15504;SDS011;7854;52.184;5.942;2022-09-09T10:03:27;6;;;2;;
15504;SDS011;7854;52.184;5.942;2022-09-09T10:05:44;4;;;1;;
15504;SDS011;7854;52.184;5.942;2022-09-09T10:08:04;1;;;0;;
15504;SDS011;7854;52.184;5.942;2022-09-09T10:10:11;3;;;0;;
15504;SDS011;7854;52.184;5.942;2022-09-09T10:12:28;6;;;1;;
15504;SDS011;7854;52.184;5.942;2022-09-09T10:14:40;2;;;1;;
15504;SDS011;7854;52.184;5.942;2022-09-09T10:16:58;2;;;0;;
15504;SDS011;7854;52.184;5.942;2022-09-09T10:19:09;4;;;1;;
15504;SDS011;7854;52.184;5.942;2022-09-09T10:21:26;3;;;0;;
15504;SDS011;7854;52.184;5.942;2022-09-09T10:23:42;2;;;0;;
15504;SDS011;7854;52.184;5.942;2022-09-09T10:25:56;8;;;1;;
15504;SDS011;7854;52.184;5.942;2022-09-09T10:28:10;3;;;1;;
15504;SDS011;7854;52.184;5.942;2022-09-09T10:30:21;2;;;0;;
15504;SDS011;7854;52.184;5.942;2022-09-09T10:32:37;7;;;1;;
15504;SDS011;7854;52.184;5.942;2022-09-09T10:34:53;1;;;0;;
15504;SDS011;7854;52.184;5.942;2022-09-09T10:37:03;1;;;0;;
15504;SDS011;7854;52.184;5.942;2022-09-09T10:39:20;2;;;1;;
15504;SDS011;7854;52.184;5.942;2022-09-09T10:41:36;4;;;1;;
15504;SDS011;7854;52.184;5.942;2022-09-09T10:43:52;2;;;0;;
15504;SDS011;7854;52.184;5.942;2022-09-09T10:46:04;3;;;0;;
15504;SDS011;7854;52.184;5.942;2022-09-09T10:48:18;1;;;1;;
15504;SDS011;7854;52.184;5.942;2022-09-09T10:50:35;3;;;1;;
15504;SDS011;7854;52.184;5.942;2022-09-09T10:52:45;8;;;1;;
15504;SDS011;7854;52.184;5.942;2022-09-09T10:54:59;2;;;0;;
15504;SDS011;7854;52.184;5.942;2022-09-09T10:57:14;5;;;1;;
15504;SDS011;7854;52.184;5.942;2022-09-09T10:59:27;4;;;1;;
15504;SDS011;7854;52.184;5.942;2022-09-09T11:01:41;3;;;1;;
15504;SDS011;7854;52.184;5.942;2022-09-09T11:03:56;2;;;1;;
15504;SDS011;7854;52.184;5.942;2022-09-09T11:06:10;8;;;1;;
15504;SDS011;7854;52.184;5.942;2022-09-09T11:08:24;3;;;1;;
15504;SDS011;7854;52.184;5.942;2022-09-09T11:10:39;5;;;1;;
15504;SDS011;7854;52.184;5.942;2022-09-09T11:12:53;5;;;1;;
15504;SDS011;7854;52.184;5.942;2022-09-09T11:15:12;3;;;1;;
15504;SDS011;7854;52.184;5.942;2022-09-09T11:17:22;3;;;1;;
15504;SDS011;7854;52.184;5.942;2022-09-09T11:19:36;2;;;1;;
15504;SDS011;7854;52.184;5.942;2022-09-09T11:21:51;1;;;1;;
15504;SDS011;7854;52.184;5.942;2022-09-09T11:24:06;1;;;0;;
15504;SDS011;7854;52.184;5.942;2022-09-09T11:26:21;5;;;0;;
15504;SDS011;7854;52.184;5.942;2022-09-09T11:28:39;2;;;1;;
15504;SDS011;7854;52.184;5.942;2022-09-09T11:30:50;10;;;2;;
15504;SDS011;7854;52.184;5.942;2022-09-09T11:33:08;3;;;1;;
15504;SDS011;7854;52.184;5.942;2022-09-09T11:35:21;1;;;1;;
15504;SDS011;7854;52.184;5.942;2022-09-09T11:37:37;2;;;0;;
15504;SDS011;7854;52.184;5.942;2022-09-09T11:39:52;2;;;1;;
15504;SDS011;7854;52.184;5.942;2022-09-09T11:42:05;3;;;0;;
15504;SDS011;7854;52.184;5.942;2022-09-09T11:44:17;3;;;2;;
15504;SDS011;7854;52.184;5.942;2022-09-09T11:46:31;3;;;1;;
15504;SDS011;7854;52.184;5.942;2022-09-09T11:48:44;1;;;1;;
15504;SDS011;7854;52.184;5.942;2022-09-09T11:50:59;6;;;2;;
15504;SDS011;7854;52.184;5.942;2022-09-09T11:53:17;6;;;1;;
15504;SDS011;7854;52.184;5.942;2022-09-09T11:55:28;7;;;1;;
15504;SDS011;7854;52.184;5.942;2022-09-09T11:57:41;1;;;0;;
15504;SDS011;7854;52.184;5.942;2022-09-09T11:59:56;4;;;1;;
15504;SDS011;7854;52.184;5.942;2022-09-09T12:02:12;6;;;1;;
15504;SDS011;7854;52.184;5.942;2022-09-09T12:04:28;2;;;1;;
15504;SDS011;7854;52.184;5.942;2022-09-09T12:06:41;5;;;1;;
15504;SDS011;7854;52.184;5.942;2022-09-09T12:08:57;2;;;1;;
15504;SDS011;7854;52.184;5.942;2022-09-09T12:11:08;5;;;2;;
15504;SDS011;7854;52.184;5.942;2022-09-09T12:13:23;7;;;1;;
15504;SDS011;7854;52.184;5.942;2022-09-09T12:15:46;4;;;1;;
15504;SDS011;7854;52.184;5.942;2022-09-09T12:17:52;2;;;1;;
15504;SDS011;7854;52.184;5.942;2022-09-09T12:20:09;2;;;0;;
15504;SDS011;7854;52.184;5.942;2022-09-09T12:22:22;5;;;1;;
15504;SDS011;7854;52.184;5.942;2022-09-09T12:24:35;6;;;1;;
15504;SDS011;7854;52.184;5.942;2022-09-09T12:26:49;1;;;1;;
15504;SDS011;7854;52.184;5.942;2022-09-09T12:29:05;1;;;0;;
15504;SDS011;7854;52.184;5.942;2022-09-09T12:31:17;3;;;1;;
15504;SDS011;7854;52.184;5.942;2022-09-09T12:33:33;2;;;1;;
15504;SDS011;7854;52.184;5.942;2022-09-09T12:35:46;2;;;1;;
15504;SDS011;7854;52.184;5.942;2022-09-09T12:38:00;1;;;1;;
15504;SDS011;7854;52.184;5.942;2022-09-09T12:40:18;6;;;1;;
15504;SDS011;7854;52.184;5.942;2022-09-09T12:42:28;3;;;0;;
15504;SDS011;7854;52.184;5.942;2022-09-09T12:44:50;12;;;0;;
15504;SDS011;7854;52.184;5.942;2022-09-09T12:46:58;2;;;0;;
15504;SDS011;7854;52.184;5.942;2022-09-09T12:49:23;5;;;1;;
15504;SDS011;7854;52.184;5.942;2022-09-09T12:51:28;1;;;0;;
15504;SDS011;7854;52.184;5.942;2022-09-09T12:53:41;2;;;1;;
15504;SDS011;7854;52.184;5.942;2022-09-09T12:58:11;1;;;0;;
15504;SDS011;7854;52.184;5.942;2022-09-09T13:00:24;5;;;0;;
15504;SDS011;7854;52.184;5.942;2022-09-09T13:02:45;2;;;1;;
15504;SDS011;7854;52.184;5.942;2022-09-09T13:04:53;1;;;0;;
15504;SDS011;7854;52.184;5.942;2022-09-09T13:07:07;2;;;0;;
15504;SDS011;7854;52.184;5.942;2022-09-09T13:09:22;1;;;0;;
15504;SDS011;7854;52.184;5.942;2022-09-09T13:11:38;1;;;0;;
15504;SDS011;7854;52.184;5.942;2022-09-09T13:13:50;5;;;0;;
15504;SDS011;7854;52.184;5.942;2022-09-09T13:16:04;1;;;0;;
15504;SDS011;7854;52.184;5.942;2022-09-09T13:18:18;1;;;0;;
15504;SDS011;7854;52.184;5.942;2022-09-09T13:20:31;1;;;0;;
15504;SDS011;7854;52.184;5.942;2022-09-09T13:22:46;1;;;0;;
15504;SDS011;7854;52.184;5.942;2022-09-09T13:27:26;1;;;0;;
15504;SDS011;7854;52.184;5.942;2022-09-09T13:29:29;1;;;0;;
15504;SDS011;7854;52.184;5.942;2022-09-09T13:31:43;4;;;1;;
15504;SDS011;7854;52.184;5.942;2022-09-09T13:33:58;2;;;0;;
15504;SDS011;7854;52.184;5.942;2022-09-09T13:36:12;1;;;0;;
15504;SDS011;7854;52.184;5.942;2022-09-09T13:38:27;1;;;0;;
15504;SDS011;7854;52.184;5.942;2022-09-09T13:40:51;2;;;0;;
15504;SDS011;7854;52.184;5.942;2022-09-09T13:42:56;1;;;0;;
15504;SDS011;7854;52.184;5.942;2022-09-09T13:45:15;3;;;1;;
15504;SDS011;7854;52.184;5.942;2022-09-09T13:47:27;0;;;0;;
15504;SDS011;7854;52.184;5.942;2022-09-09T13:49:38;1;;;0;;
15504;SDS011;7854;52.184;5.942;2022-09-09T13:52:02;0;;;0;;
15504;SDS011;7854;52.184;5.942;2022-09-09T13:54:08;2;;;0;;
15504;SDS011;7854;52.184;5.942;2022-09-09T13:56:22;3;;;1;;
15504;SDS011;7854;52.184;5.942;2022-09-09T13:58:37;1;;;0;;
15504;SDS011;7854;52.184;5.942;2022-09-09T14:00:51;1;;;0;;
15504;SDS011;7854;52.184;5.942;2022-09-09T14:03:06;4;;;0;;
15504;SDS011;7854;52.184;5.942;2022-09-09T14:05:20;1;;;0;;
15504;SDS011;7854;52.184;5.942;2022-09-09T14:07:34;1;;;0;;
15504;SDS011;7854;52.184;5.942;2022-09-09T14:09:49;4;;;0;;
15504;SDS011;7854;52.184;5.942;2022-09-09T14:12:03;1;;;0;;
15504;SDS011;7854;52.184;5.942;2022-09-09T14:14:18;3;;;0;;
15504;SDS011;7854;52.184;5.942;2022-09-09T14:16:32;2;;;0;;
15504;SDS011;7854;52.184;5.942;2022-09-09T14:18:47;5;;;1;;
15504;SDS011;7854;52.184;5.942;2022-09-09T14:21:01;2;;;0;;
15504;SDS011;7854;52.184;5.942;2022-09-09T14:23:16;2;;;0;;
15504;SDS011;7854;52.184;5.942;2022-09-09T14:25:30;1;;;0;;
15504;SDS011;7854;52.184;5.942;2022-09-09T14:27:44;3;;;1;;
15504;SDS011;7854;52.184;5.942;2022-09-09T14:29:59;0;;;0;;
15504;SDS011;7854;52.184;5.942;2022-09-09T14:32:13;0;;;0;;
15504;SDS011;7854;52.184;5.942;2022-09-09T14:34:28;1;;;0;;
15504;SDS011;7854;52.184;5.942;2022-09-09T14:36:42;2;;;0;;
15504;SDS011;7854;52.184;5.942;2022-09-09T14:38:57;1;;;1;;
15504;SDS011;7854;52.184;5.942;2022-09-09T14:41:12;5;;;0;;
15504;SDS011;7854;52.184;5.942;2022-09-09T14:43:26;1;;;0;;
15504;SDS011;7854;52.184;5.942;2022-09-09T14:45:40;2;;;0;;
15504;SDS011;7854;52.184;5.942;2022-09-09T14:47:54;1;;;1;;
15504;SDS011;7854;52.184;5.942;2022-09-09T14:50:09;1;;;0;;
15504;SDS011;7854;52.184;5.942;2022-09-09T14:52:23;3;;;1;;
15504;SDS011;7854;52.184;5.942;2022-09-09T14:54:38;7;;;1;;
15504;SDS011;7854;52.184;5.942;2022-09-09T14:56:52;1;;;0;;
15504;SDS011;7854;52.184;5.942;2022-09-09T14:59:07;1;;;0;;
15504;SDS011;7854;52.184;5.942;2022-09-09T15:01:21;2;;;1;;
15504;SDS011;7854;52.184;5.942;2022-09-09T15:03:36;2;;;1;;
15504;SDS011;7854;52.184;5.942;2022-09-09T15:05:50;1;;;0;;
15504;SDS011;7854;52.184;5.942;2022-09-09T15:08:04;3;;;0;;